sensor_id;sensor_type;location;lat;lon;timestamp;P1;durP1;ratioP1;P2;durP2;ratioP2
13411;SDS011;6777;51.474;7.218;2022-07-01T00:02:08;2.97;;;2.73;;
13411;SDS011;6777;51.474;7.218;2022-07-01T00:04:35;3.13;;;2.90;;
13411;SDS011;6777;51.474;7.218;2022-07-01T00:07:02;3.13;;;2.93;;
13411;SDS011;6777;51.474;7.218;2022-07-01T00:09:31;3.80;;;3.23;;
13411;SDS011;6777;51.474;7.218;2022-07-01T00:11:58;2.90;;;2.70;;
13411;SDS011;6777;51.474;7.218;2022-07-01T00:14:25;3.13;;;2.93;;
13411;SDS011;6777;51.474;7.218;2022-07-01T00:16:52;3.70;;;3.40;;
13411;SDS011;6777;51.474;7.218;2022-07-01T00:19:19;3.40;;;3.10;;
13411;SDS011;6777;51.474;7.218;2022-07-01T00:21:46;3.30;;;3.00;;
13411;SDS011;6777;51.474;7.218;2022-07-01T00:24:13;3.10;;;2.90;;
13411;SDS011;6777;51.474;7.218;2022-07-01T00:26:42;3.43;;;3.00;;
13411;SDS011;6777;51.474;7.218;2022-07-01T00:29:09;4.00;;;3.37;;
13411;SDS011;6777;51.474;7.218;2022-07-01T00:31:36;3.80;;;3.50;;
13411;SDS011;6777;51.474;7.218;2022-07-01T00:34:03;4.83;;;3.60;;
13411;SDS011;6777;51.474;7.218;2022-07-01T00:36:30;3.90;;;3.50;;
13411;SDS011;6777;51.474;7.218;2022-07-01T00:38:58;4.00;;;3.70;;
13411;SDS011;6777;51.474;7.218;2022-07-01T00:41:25;4.00;;;3.70;;
13411;SDS011;6777;51.474;7.218;2022-07-01T00:43:54;3.77;;;3.47;;
13411;SDS011;6777;51.474;7.218;2022-07-01T00:46:23;3.90;;;3.60;;
13411;SDS011;6777;51.474;7.218;2022-07-01T00:48:51;4.10;;;3.80;;
13411;SDS011;6777;51.474;7.218;2022-07-01T00:51:21;4.40;;;4.00;;
13411;SDS011;6777;51.474;7.218;2022-07-01T00:53:48;4.50;;;4.10;;
13411;SDS011;6777;51.474;7.218;2022-07-01T00:56:15;4.83;;;4.43;;
13411;SDS011;6777;51.474;7.218;2022-07-01T00:58:42;4.87;;;4.47;;
13411;SDS011;6777;51.474;7.218;2022-07-01T01:01:11;5.30;;;4.90;;
13411;SDS011;6777;51.474;7.218;2022-07-01T01:03:38;4.93;;;4.53;;
13411;SDS011;6777;51.474;7.218;2022-07-01T01:06:05;5.13;;;4.73;;
13411;SDS011;6777;51.474;7.218;2022-07-01T01:08:33;5.30;;;4.80;;
13411;SDS011;6777;51.474;7.218;2022-07-01T01:11:00;5.73;;;5.23;;
13411;SDS011;6777;51.474;7.218;2022-07-01T01:13:27;6.10;;;5.50;;
13411;SDS011;6777;51.474;7.218;2022-07-01T01:15:55;5.90;;;5.40;;
13411;SDS011;6777;51.474;7.218;2022-07-01T01:18:23;5.93;;;5.43;;
13411;SDS011;6777;51.474;7.218;2022-07-01T01:20:52;6.37;;;5.77;;
13411;SDS011;6777;51.474;7.218;2022-07-01T01:23:20;6.17;;;5.63;;
13411;SDS011;6777;51.474;7.218;2022-07-01T01:25:47;7.03;;;6.33;;
13411;SDS011;6777;51.474;7.218;2022-07-01T01:28:14;6.87;;;6.27;;
13411;SDS011;6777;51.474;7.218;2022-07-01T01:30:41;5.67;;;5.17;;
13411;SDS011;6777;51.474;7.218;2022-07-01T01:33:08;6.17;;;5.50;;
13411;SDS011;6777;51.474;7.218;2022-07-01T01:35:36;5.77;;;5.20;;
13411;SDS011;6777;51.474;7.218;2022-07-01T01:38:05;6.13;;;5.60;;
13411;SDS011;6777;51.474;7.218;2022-07-01T01:40:32;6.37;;;5.77;;
13411;SDS011;6777;51.474;7.218;2022-07-01T01:42:59;6.70;;;6.03;;
13411;SDS011;6777;51.474;7.218;2022-07-01T01:45:26;6.23;;;5.63;;
13411;SDS011;6777;51.474;7.218;2022-07-01T01:47:54;5.97;;;5.47;;
13411;SDS011;6777;51.474;7.218;2022-07-01T01:50:21;6.37;;;5.80;;
13411;SDS011;6777;51.474;7.218;2022-07-01T01:52:48;6.17;;;5.63;;
13411;SDS011;6777;51.474;7.218;2022-07-01T01:55:17;5.43;;;4.93;;
13411;SDS011;6777;51.474;7.218;2022-07-01T01:57:44;6.03;;;5.53;;
13411;SDS011;6777;51.474;7.218;2022-07-01T02:00:11;5.57;;;5.07;;
13411;SDS011;6777;51.474;7.218;2022-07-01T02:02:40;5.63;;;5.13;;
13411;SDS011;6777;51.474;7.218;2022-07-01T02:05:08;5.70;;;5.03;;
13411;SDS011;6777;51.474;7.218;2022-07-01T02:07:38;4.53;;;4.13;;
13411;SDS011;6777;51.474;7.218;2022-07-01T02:10:05;5.50;;;5.00;;
13411;SDS011;6777;51.474;7.218;2022-07-01T02:12:35;5.10;;;4.70;;
13411;SDS011;6777;51.474;7.218;2022-07-01T02:15:02;5.47;;;4.27;;
13411;SDS011;6777;51.474;7.218;2022-07-01T02:17:30;4.40;;;4.00;;
13411;SDS011;6777;51.474;7.218;2022-07-01T02:19:57;4.20;;;3.83;;
13411;SDS011;6777;51.474;7.218;2022-07-01T02:22:24;4.60;;;4.20;;
13411;SDS011;6777;51.474;7.218;2022-07-01T02:24:51;4.20;;;3.90;;
13411;SDS011;6777;51.474;7.218;2022-07-01T02:27:18;4.53;;;4.13;;
13411;SDS011;6777;51.474;7.218;2022-07-01T02:29:46;4.67;;;4.00;;
13411;SDS011;6777;51.474;7.218;2022-07-01T02:32:13;4.87;;;4.10;;
13411;SDS011;6777;51.474;7.218;2022-07-01T02:34:40;3.67;;;3.37;;
13411;SDS011;6777;51.474;7.218;2022-07-01T02:37:07;4.90;;;4.40;;
13411;SDS011;6777;51.474;7.218;2022-07-01T02:39:35;4.57;;;4.17;;
13411;SDS011;6777;51.474;7.218;2022-07-01T02:42:02;3.90;;;3.60;;
13411;SDS011;6777;51.474;7.218;2022-07-01T02:44:48;3.50;;;3.20;;
13411;SDS011;6777;51.474;7.218;2022-07-01T02:47:15;3.87;;;3.57;;
13411;SDS011;6777;51.474;7.218;2022-07-01T02:49:42;4.43;;;3.07;;
13411;SDS011;6777;51.474;7.218;2022-07-01T02:52:09;4.20;;;3.80;;
13411;SDS011;6777;51.474;7.218;2022-07-01T02:54:36;3.60;;;3.30;;
13411;SDS011;6777;51.474;7.218;2022-07-01T02:57:03;5.50;;;3.67;;
13411;SDS011;6777;51.474;7.218;2022-07-01T02:59:31;4.00;;;3.60;;
13411;SDS011;6777;51.474;7.218;2022-07-01T03:01:59;3.97;;;3.57;;
13411;SDS011;6777;51.474;7.218;2022-07-01T03:04:26;3.97;;;3.57;;
13411;SDS011;6777;51.474;7.218;2022-07-01T03:06:53;4.03;;;3.27;;
13411;SDS011;6777;51.474;7.218;2022-07-01T03:09:20;4.60;;;3.50;;
13411;SDS011;6777;51.474;7.218;2022-07-01T03:11:47;3.83;;;3.47;;
13411;SDS011;6777;51.474;7.218;2022-07-01T03:14:14;3.83;;;3.47;;
13411;SDS011;6777;51.474;7.218;2022-07-01T03:16:41;4.23;;;3.60;;
13411;SDS011;6777;51.474;7.218;2022-07-01T03:19:10;5.00;;;3.60;;
13411;SDS011;6777;51.474;7.218;2022-07-01T03:21:37;4.17;;;3.60;;
13411;SDS011;6777;51.474;7.218;2022-07-01T03:24:05;4.13;;;3.33;;
13411;SDS011;6777;51.474;7.218;2022-07-01T03:26:32;4.50;;;3.53;;
13411;SDS011;6777;51.474;7.218;2022-07-01T03:28:59;4.23;;;3.23;;
13411;SDS011;6777;51.474;7.218;2022-07-01T03:31:26;3.70;;;3.30;;
13411;SDS011;6777;51.474;7.218;2022-07-01T03:33:53;4.73;;;3.50;;
13411;SDS011;6777;51.474;7.218;2022-07-01T03:36:22;3.43;;;3.07;;
13411;SDS011;6777;51.474;7.218;2022-07-01T03:38:50;4.00;;;3.60;;
13411;SDS011;6777;51.474;7.218;2022-07-01T03:41:17;3.80;;;3.33;;
13411;SDS011;6777;51.474;7.218;2022-07-01T03:43:44;3.30;;;3.00;;
13411;SDS011;6777;51.474;7.218;2022-07-01T03:46:11;3.97;;;3.20;;
13411;SDS011;6777;51.474;7.218;2022-07-01T03:48:38;3.73;;;3.27;;
13411;SDS011;6777;51.474;7.218;2022-07-01T03:51:05;5.27;;;3.60;;
13411;SDS011;6777;51.474;7.218;2022-07-01T03:53:34;4.23;;;3.50;;
13411;SDS011;6777;51.474;7.218;2022-07-01T03:56:19;3.83;;;3.20;;
13411;SDS011;6777;51.474;7.218;2022-07-01T03:58:46;2.97;;;2.67;;
13411;SDS011;6777;51.474;7.218;2022-07-01T04:01:13;3.33;;;3.03;;
13411;SDS011;6777;51.474;7.218;2022-07-01T04:03:40;3.73;;;3.23;;
13411;SDS011;6777;51.474;7.218;2022-07-01T04:06:07;3.57;;;3.27;;
13411;SDS011;6777;51.474;7.218;2022-07-01T04:08:35;3.50;;;3.20;;
13411;SDS011;6777;51.474;7.218;2022-07-01T04:11:03;3.87;;;3.37;;
13411;SDS011;6777;51.474;7.218;2022-07-01T04:13:31;3.50;;;3.20;;
13411;SDS011;6777;51.474;7.218;2022-07-01T04:15:58;5.27;;;3.77;;
13411;SDS011;6777;51.474;7.218;2022-07-01T04:18:26;3.43;;;3.13;;
13411;SDS011;6777;51.474;7.218;2022-07-01T04:20:54;4.00;;;3.33;;
13411;SDS011;6777;51.474;7.218;2022-07-01T04:23:41;3.83;;;3.43;;
13411;SDS011;6777;51.474;7.218;2022-07-01T04:26:08;3.13;;;2.83;;
13411;SDS011;6777;51.474;7.218;2022-07-01T04:28:35;3.50;;;3.17;;
13411;SDS011;6777;51.474;7.218;2022-07-01T04:31:02;3.33;;;2.97;;
13411;SDS011;6777;51.474;7.218;2022-07-01T04:33:29;4.80;;;3.10;;
13411;SDS011;6777;51.474;7.218;2022-07-01T04:35:56;3.93;;;3.10;;
13411;SDS011;6777;51.474;7.218;2022-07-01T04:38:24;3.53;;;2.70;;
13411;SDS011;6777;51.474;7.218;2022-07-01T04:40:53;3.60;;;3.30;;
13411;SDS011;6777;51.474;7.218;2022-07-01T04:43:33;4.80;;;3.20;;
13411;SDS011;6777;51.474;7.218;2022-07-01T04:46:00;4.23;;;3.20;;
13411;SDS011;6777;51.474;7.218;2022-07-01T04:48:28;3.30;;;3.00;;
13411;SDS011;6777;51.474;7.218;2022-07-01T04:50:55;3.63;;;3.33;;
13411;SDS011;6777;51.474;7.218;2022-07-01T04:53:22;4.60;;;3.07;;
13411;SDS011;6777;51.474;7.218;2022-07-01T04:55:49;3.40;;;3.10;;
13411;SDS011;6777;51.474;7.218;2022-07-01T04:58:17;3.30;;;3.00;;
13411;SDS011;6777;51.474;7.218;2022-07-01T05:00:44;3.43;;;2.80;;
13411;SDS011;6777;51.474;7.218;2022-07-01T05:03:13;3.47;;;2.83;;
13411;SDS011;6777;51.474;7.218;2022-07-01T05:05:41;3.60;;;3.27;;
13411;SDS011;6777;51.474;7.218;2022-07-01T05:08:08;3.07;;;2.73;;
13411;SDS011;6777;51.474;7.218;2022-07-01T05:10:35;4.10;;;3.10;;
13411;SDS011;6777;51.474;7.218;2022-07-01T05:13:02;3.17;;;2.87;;
13411;SDS011;6777;51.474;7.218;2022-07-01T05:15:31;2.73;;;2.53;;
13411;SDS011;6777;51.474;7.218;2022-07-01T05:17:58;3.30;;;2.70;;
13411;SDS011;6777;51.474;7.218;2022-07-01T05:20:43;3.90;;;2.87;;
13411;SDS011;6777;51.474;7.218;2022-07-01T05:23:27;3.73;;;2.70;;
13411;SDS011;6777;51.474;7.218;2022-07-01T05:25:54;3.90;;;2.90;;
13411;SDS011;6777;51.474;7.218;2022-07-01T05:28:21;3.13;;;2.83;;
13411;SDS011;6777;51.474;7.218;2022-07-01T05:30:50;3.27;;;2.97;;
13411;SDS011;6777;51.474;7.218;2022-07-01T05:33:17;3.13;;;2.60;;
13411;SDS011;6777;51.474;7.218;2022-07-01T05:35:46;2.80;;;2.60;;
13411;SDS011;6777;51.474;7.218;2022-07-01T05:38:13;3.10;;;2.80;;
13411;SDS011;6777;51.474;7.218;2022-07-01T05:40:40;2.67;;;2.47;;
13411;SDS011;6777;51.474;7.218;2022-07-01T05:43:07;4.17;;;2.90;;
13411;SDS011;6777;51.474;7.218;2022-07-01T05:45:34;3.03;;;2.50;;
13411;SDS011;6777;51.474;7.218;2022-07-01T05:48:03;5.57;;;2.73;;
13411;SDS011;6777;51.474;7.218;2022-07-01T05:50:31;3.03;;;2.67;;
13411;SDS011;6777;51.474;7.218;2022-07-01T05:52:59;3.07;;;2.87;;
13411;SDS011;6777;51.474;7.218;2022-07-01T05:55:26;3.10;;;2.80;;
13411;SDS011;6777;51.474;7.218;2022-07-01T05:57:53;3.27;;;2.97;;
13411;SDS011;6777;51.474;7.218;2022-07-01T06:00:20;3.80;;;3.40;;
13411;SDS011;6777;51.474;7.218;2022-07-01T06:02:47;3.20;;;3.00;;
13411;SDS011;6777;51.474;7.218;2022-07-01T06:05:16;3.53;;;3.20;;
13411;SDS011;6777;51.474;7.218;2022-07-01T06:07:43;4.97;;;3.40;;
13411;SDS011;6777;51.474;7.218;2022-07-01T06:10:10;4.00;;;3.17;;
13411;SDS011;6777;51.474;7.218;2022-07-01T06:12:37;3.77;;;3.13;;
13411;SDS011;6777;51.474;7.218;2022-07-01T06:15:05;3.10;;;2.80;;
13411;SDS011;6777;51.474;7.218;2022-07-01T06:17:34;3.63;;;3.13;;
13411;SDS011;6777;51.474;7.218;2022-07-01T06:20:02;4.83;;;3.30;;
13411;SDS011;6777;51.474;7.218;2022-07-01T06:22:31;3.80;;;3.50;;
13411;SDS011;6777;51.474;7.218;2022-07-01T06:24:59;4.33;;;3.60;;
13411;SDS011;6777;51.474;7.218;2022-07-01T06:27:27;4.80;;;4.10;;
13411;SDS011;6777;51.474;7.218;2022-07-01T06:29:54;4.17;;;3.60;;
13411;SDS011;6777;51.474;7.218;2022-07-01T06:32:21;3.87;;;3.40;;
13411;SDS011;6777;51.474;7.218;2022-07-01T06:34:48;4.20;;;3.63;;
13411;SDS011;6777;51.474;7.218;2022-07-01T06:37:17;4.17;;;3.77;;
13411;SDS011;6777;51.474;7.218;2022-07-01T06:39:46;6.13;;;4.37;;
13411;SDS011;6777;51.474;7.218;2022-07-01T06:42:14;4.70;;;4.07;;
13411;SDS011;6777;51.474;7.218;2022-07-01T06:44:41;5.97;;;5.47;;
13411;SDS011;6777;51.474;7.218;2022-07-01T06:47:08;4.93;;;4.13;;
13411;SDS011;6777;51.474;7.218;2022-07-01T06:49:35;5.47;;;4.97;;
13411;SDS011;6777;51.474;7.218;2022-07-01T06:52:03;6.07;;;5.47;;
13411;SDS011;6777;51.474;7.218;2022-07-01T06:54:30;5.53;;;4.80;;
13411;SDS011;6777;51.474;7.218;2022-07-01T06:56:59;4.40;;;3.83;;
13411;SDS011;6777;51.474;7.218;2022-07-01T06:59:26;4.80;;;3.90;;
13411;SDS011;6777;51.474;7.218;2022-07-01T07:01:53;4.77;;;4.10;;
13411;SDS011;6777;51.474;7.218;2022-07-01T07:04:20;4.30;;;3.90;;
13411;SDS011;6777;51.474;7.218;2022-07-01T07:06:47;4.33;;;3.93;;
13411;SDS011;6777;51.474;7.218;2022-07-01T07:09:14;4.57;;;4.17;;
13411;SDS011;6777;51.474;7.218;2022-07-01T07:11:42;4.30;;;3.27;;
13411;SDS011;6777;51.474;7.218;2022-07-01T07:14:11;3.77;;;2.90;;
13411;SDS011;6777;51.474;7.218;2022-07-01T07:16:38;2.80;;;2.57;;
13411;SDS011;6777;51.474;7.218;2022-07-01T07:19:05;2.90;;;2.70;;
13411;SDS011;6777;51.474;7.218;2022-07-01T07:21:32;2.57;;;2.37;;
13411;SDS011;6777;51.474;7.218;2022-07-01T07:23:59;2.40;;;2.20;;
13411;SDS011;6777;51.474;7.218;2022-07-01T07:26:27;2.70;;;2.50;;
13411;SDS011;6777;51.474;7.218;2022-07-01T07:28:54;3.47;;;2.50;;
13411;SDS011;6777;51.474;7.218;2022-07-01T07:31:22;2.60;;;2.40;;
13411;SDS011;6777;51.474;7.218;2022-07-01T07:33:49;3.60;;;2.63;;
